Time;durP1;ratioP1;P1;durP2;ratioP2;P2;SDS_P1;SDS_P2;PMS_P1;PMS_P2;Temp;Humidity;BMP_temperature;BMP_pressure;BME280_temperature;BME280_humidity;BME280_pressure;Samples;Min_cycle;Max_cycle;Signal;HPM_P1;HPM_P2
2021/08/14 00:01:27;;;;;;;17.63;5.30;;;16.10;99.90;;;;;;5073727;28;20093;-69
2021/08/14 00:03:53;;;;;;;13.25;5.97;;;16.00;99.90;;;;;;5073480;28;20097;-69
2021/08/14 00:06:18;;;;;;;14.18;5.53;;;16.00;99.90;;;;;;5073710;28;20043;-69
2021/08/14 00:08:45;;;;;;;13.82;5.65;;;15.90;99.90;;;;;;5073010;28;20499;-69
2021/08/14 00:11:11;;;;;;;16.90;5.30;;;15.90;99.90;;;;;;5073246;28;20043;-69
2021/08/14 00:13:37;;;;;;;15.65;6.30;;;16.00;99.90;;;;;;5073041;28;20065;-69
2021/08/14 00:16:04;;;;;;;17.15;5.75;;;16.00;99.90;;;;;;5073581;28;20474;-69
2021/08/14 00:18:33;;;;;;;13.10;4.80;;;16.00;99.90;;;;;;5073079;28;20051;-69
2021/08/14 00:20:58;;;;;;;15.77;5.88;;;16.00;99.90;;;;;;5073192;28;20037;-69
2021/08/14 00:23:24;;;;;;;16.58;5.72;;;15.90;99.90;;;;;;5073214;28;20056;-69
2021/08/14 00:25:50;;;;;;;20.17;6.40;;;15.90;99.90;;;;;;5073304;28;20415;-69
2021/08/14 00:28:17;;;;;;;14.65;5.85;;;15.90;99.90;;;;;;5073411;28;20053;-69
2021/08/14 00:30:42;;;;;;;20.00;6.53;;;15.90;99.90;;;;;;5073009;28;20051;-69
2021/08/14 00:33:08;;;;;;;13.10;5.03;;;15.90;99.90;;;;;;5073598;28;20036;-69
2021/08/14 00:35:34;;;;;;;14.65;5.05;;;15.90;99.90;;;;;;5072951;28;20066;-69
2021/08/14 00:37:59;;;;;;;15.98;5.07;;;15.90;99.90;;;;;;5073482;28;20053;-69
2021/08/14 00:40:25;;;;;;;18.35;5.60;;;15.90;99.90;;;;;;5072833;28;20055;-69
2021/08/14 00:42:51;;;;;;;14.13;5.70;;;15.90;99.90;;;;;;5073267;28;20087;-69
2021/08/14 00:45:16;;;;;;;16.13;6.72;;;15.90;99.90;;;;;;5072917;28;20040;-69
2021/08/14 00:47:43;;;;;;;14.52;5.85;;;16.00;99.90;;;;;;5073354;28;20247;-69
2021/08/14 00:50:11;;;;;;;15.48;5.85;;;16.00;99.90;;;;;;5072611;28;20068;-69
2021/08/14 00:52:37;;;;;;;13.63;6.05;;;16.00;99.90;;;;;;5072809;28;20119;-69
2021/08/14 00:55:03;;;;;;;15.63;5.70;;;15.90;99.90;;;;;;5073189;28;20075;-69
2021/08/14 00:57:29;;;;;;;15.38;5.95;;;15.90;99.90;;;;;;5072835;28;20039;-69
2021/08/14 00:59:55;;;;;;;12.75;6.03;;;15.90;99.90;;;;;;5072444;28;20478;-69
2021/08/14 01:02:21;;;;;;;14.55;6.05;;;15.90;99.90;;;;;;5072777;28;20105;-69
2021/08/14 01:04:48;;;;;;;13.57;5.25;;;15.90;99.90;;;;;;5072736;28;20476;-69
2021/08/14 01:07:16;;;;;;;14.40;6.20;;;15.90;99.90;;;;;;5072844;28;20037;-69
2021/08/14 01:09:41;;;;;;;16.77;6.30;;;15.90;99.90;;;;;;5072980;28;20128;-69
2021/08/14 01:12:07;;;;;;;19.27;7.20;;;15.80;99.90;;;;;;5075164;28;20107;-69
2021/08/14 01:14:34;;;;;;;17.23;7.07;;;15.80;99.90;;;;;;5076288;28;20407;-69
2021/08/14 01:17:01;;;;;;;14.73;6.57;;;15.80;99.90;;;;;;5076362;28;20106;-69
2021/08/14 01:19:28;;;;;;;14.77;6.22;;;15.80;99.90;;;;;;5075937;28;20067;-69
2021/08/14 01:21:54;;;;;;;16.10;6.50;;;15.80;99.90;;;;;;5076347;28;20120;-69
2021/08/14 01:24:21;;;;;;;14.35;6.13;;;15.80;99.90;;;;;;5075325;28;20442;-69
2021/08/14 01:26:48;;;;;;;16.02;7.03;;;15.80;99.90;;;;;;5076309;28;20048;-69
2021/08/14 01:29:13;;;;;;;12.90;6.22;;;15.80;99.90;;;;;;5075906;28;20123;-69
2021/08/14 01:31:40;;;;;;;15.77;6.05;;;15.70;99.90;;;;;;5076251;28;20151;-69
2021/08/14 01:34:06;;;;;;;14.93;6.63;;;15.70;99.90;;;;;;5076180;28;20482;-69
2021/08/14 01:36:32;;;;;;;15.90;6.38;;;15.70;99.90;;;;;;5076054;28;20108;-69
2021/08/14 01:39:00;;;;;;;11.48;6.57;;;15.70;99.90;;;;;;5075717;28;20068;-69
2021/08/14 01:41:26;;;;;;;16.40;6.93;;;15.80;99.90;;;;;;5075024;28;20033;-69
2021/08/14 01:44:00;;;;;;;13.98;7.07;;;15.80;99.90;;;;;;5076017;28;20041;-69
2021/08/14 01:46:29;;;;;;;14.45;6.75;;;15.80;99.90;;;;;;5076134;28;20098;-69
2021/08/14 01:48:55;;;;;;;15.98;5.47;;;15.90;99.90;;;;;;5075715;28;20072;-69
2021/08/14 01:51:21;;;;;;;17.52;6.93;;;15.80;99.90;;;;;;5075655;28;20072;-69
2021/08/14 01:53:49;;;;;;;16.25;6.80;;;15.80;99.90;;;;;;5075682;28;20040;-69
2021/08/14 01:56:16;;;;;;;18.65;7.28;;;15.90;99.90;;;;;;5075788;28;20037;-69
2021/08/14 01:58:42;;;;;;;16.38;6.32;;;15.90;99.90;;;;;;5075439;28;20051;-69
2021/08/14 02:01:08;;;;;;;18.88;7.25;;;15.90;99.90;;;;;;5075626;28;20033;-69
2021/08/14 02:03:35;;;;;;;12.27;6.32;;;15.90;99.90;;;;;;5074370;28;20472;-69
2021/08/14 02:06:02;;;;;;;17.27;6.13;;;16.00;99.90;;;;;;5075696;28;20045;-69
2021/08/14 02:08:28;;;;;;;20.02;6.88;;;15.90;99.90;;;;;;5075234;28;20537;-69
2021/08/14 02:10:54;;;;;;;21.35;6.57;;;15.90;99.90;;;;;;5075355;28;20047;-69
2021/08/14 02:13:20;;;;;;;23.77;7.63;;;15.90;99.90;;;;;;5075690;28;20037;-69
2021/08/14 02:15:45;;;;;;;19.92;6.90;;;15.90;99.90;;;;;;5075495;28;20055;-69
2021/08/14 02:18:11;;;;;;;18.80;6.32;;;15.80;99.90;;;;;;5075436;28;20087;-69
2021/08/14 02:20:36;;;;;;;17.00;6.28;;;15.90;99.90;;;;;;5075086;28;20480;-69
2021/08/14 02:23:02;;;;;;;20.02;6.15;;;15.80;99.90;;;;;;5074943;28;20573;-69
2021/08/14 02:25:28;;;;;;;19.65;6.65;;;15.90;99.90;;;;;;5075593;28;20361;-69
2021/08/14 02:27:54;;;;;;;18.95;5.88;;;15.90;99.90;;;;;;5075728;28;20117;-69
2021/08/14 02:30:19;;;;;;;17.77;6.30;;;15.90;99.90;;;;;;5074737;28;20036;-69
2021/08/14 02:32:47;;;;;;;16.38;6.93;;;15.90;99.90;;;;;;5074789;28;20106;-70
2021/08/14 02:35:13;;;;;;;22.80;7.88;;;15.90;99.90;;;;;;5075305;28;20048;-69
2021/08/14 02:37:39;;;;;;;16.45;5.78;;;16.00;99.90;;;;;;5075144;28;20506;-69
2021/08/14 02:40:07;;;;;;;18.20;6.25;;;16.00;99.90;;;;;;5074821;28;20476;-69
2021/08/14 02:42:32;;;;;;;18.75;6.85;;;16.00;99.90;;;;;;5074775;28;20119;-69
2021/08/14 02:44:58;;;;;;;16.15;6.75;;;16.00;99.90;;;;;;5075312;28;20041;-69
2021/08/14 02:47:24;;;;;;;17.88;6.97;;;16.00;99.90;;;;;;5074771;28;20068;-69
2021/08/14 02:49:50;;;;;;;20.00;6.70;;;16.00;99.90;;;;;;5074616;28;20036;-69
2021/08/14 02:52:16;;;;;;;24.25;7.18;;;16.10;99.90;;;;;;5074808;28;20044;-69
2021/08/14 02:54:41;;;;;;;16.67;6.30;;;16.00;99.90;;;;;;5074660;28;20041;-69
2021/08/14 02:57:07;;;;;;;17.77;6.93;;;16.00;99.90;;;;;;5074519;28;20040;-69
2021/08/14 02:59:32;;;;;;;18.55;6.25;;;16.00;99.90;;;;;;5074225;28;20036;-69
2021/08/14 03:01:58;;;;;;;14.68;6.38;;;16.00;99.90;;;;;;5074362;28;20036;-69
2021/08/14 03:04:24;;;;;;;14.77;6.85;;;16.00;99.90;;;;;;5074448;28;20036;-69
2021/08/14 03:06:56;;;;;;;21.00;7.07;;;16.00;99.90;;;;;;5074678;28;20032;-69
2021/08/14 03:09:22;;;;;;;23.08;8.57;;;16.00;99.90;;;;;;5074217;28;20036;-69
2021/08/14 03:11:47;;;;;;;22.48;7.10;;;16.00;99.90;;;;;;5074301;28;20051;-69
2021/08/14 03:14:13;;;;;;;19.88;7.82;;;16.00;99.90;;;;;;5074170;28;20404;-69
2021/08/14 03:16:39;;;;;;;21.90;7.05;;;16.00;99.90;;;;;;5074547;28;20040;-69
2021/08/14 03:19:04;;;;;;;20.20;7.38;;;16.00;99.90;;;;;;5073921;28;20439;-69
2021/08/14 03:21:30;;;;;;;19.15;7.38;;;16.00;99.90;;;;;;5074066;28;20111;-69
2021/08/14 03:23:56;;;;;;;20.13;6.57;;;16.00;99.90;;;;;;5074201;28;20123;-69
2021/08/14 03:26:23;;;;;;;17.45;7.28;;;16.00;99.90;;;;;;5073908;28;20046;-69
2021/08/14 03:28:48;;;;;;;20.17;7.28;;;16.00;99.90;;;;;;5073589;28;20047;-69
2021/08/14 03:31:14;;;;;;;21.05;7.18;;;16.00;99.90;;;;;;5074050;28;20044;-69
2021/08/14 03:33:40;;;;;;;18.80;8.13;;;16.00;99.90;;;;;;5073033;28;20054;-69
2021/08/14 03:36:06;;;;;;;17.90;7.75;;;16.00;99.90;;;;;;5073818;28;20040;-69
2021/08/14 03:38:31;;;;;;;15.20;7.32;;;16.00;99.90;;;;;;5073709;28;20040;-69
2021/08/14 03:40:57;;;;;;;21.15;7.50;;;16.00;99.90;;;;;;5073558;28;20492;-69
2021/08/14 03:43:23;;;;;;;19.13;7.63;;;16.00;99.90;;;;;;5073944;28;20494;-69
2021/08/14 03:45:48;;;;;;;18.48;7.05;;;16.00;99.90;;;;;;5073592;28;20037;-69
2021/08/14 03:48:14;;;;;;;24.80;7.63;;;16.00;99.90;;;;;;5072492;28;20119;-69
2021/08/14 03:50:40;;;;;;;20.38;7.93;;;16.00;99.90;;;;;;5073570;28;20045;-69
2021/08/14 03:53:06;;;;;;;17.33;7.07;;;16.00;99.90;;;;;;5073474;28;20062;-69
2021/08/14 03:55:32;;;;;;;18.13;7.43;;;16.00;99.90;;;;;;5073410;28;20040;-69
2021/08/14 03:57:58;;;;;;;22.05;7.78;;;15.90;99.90;;;;;;5073617;28;20094;-69
2021/08/14 04:00:23;;;;;;;22.55;8.23;;;16.00;99.90;;;;;;5073338;28;20041;-69
2021/08/14 04:02:49;;;;;;;17.50;7.30;;;16.00;99.90;;;;;;5074068;28;20123;-69
2021/08/14 04:05:15;;;;;;;17.70;7.38;;;16.00;99.90;;;;;;5073781;28;20058;-69
2021/08/14 04:07:41;;;;;;;23.83;7.30;;;15.90;99.90;;;;;;5073447;28;20041;-69
2021/08/14 04:10:07;;;;;;;19.10;7.85;;;15.90;99.90;;;;;;5072940;28;20037;-69
2021/08/14 04:12:32;;;;;;;18.80;8.18;;;15.90;99.90;;;;;;5073083;28;20064;-69
2021/08/14 04:14:59;;;;;;;21.55;7.35;;;15.90;99.90;;;;;;5073311;28;20460;-69
2021/08/14 04:17:25;;;;;;;26.15;8.75;;;16.00;99.90;;;;;;5073542;28;20036;-69
2021/08/14 04:19:51;;;;;;;26.40;9.85;;;15.90;99.90;;;;;;5073414;28;20041;-69
2021/08/14 04:22:16;;;;;;;26.52;7.78;;;15.90;99.90;;;;;;5073154;28;20036;-69
2021/08/14 04:24:42;;;;;;;21.10;9.10;;;15.90;99.90;;;;;;5073699;28;20036;-69
2021/08/14 04:27:08;;;;;;;19.90;7.43;;;15.90;99.90;;;;;;5073151;28;20040;-69
2021/08/14 04:29:37;;;;;;;22.13;8.88;;;15.90;99.90;;;;;;5072979;28;20048;-69
2021/08/14 04:32:03;;;;;;;19.40;7.88;;;15.90;99.90;;;;;;5073485;28;20037;-69
2021/08/14 04:34:29;;;;;;;23.75;8.40;;;15.90;99.90;;;;;;5073129;28;20049;-69
2021/08/14 04:36:55;;;;;;;18.98;7.82;;;15.90;99.90;;;;;;5073447;28;20145;-68
2021/08/14 04:39:20;;;;;;;22.27;8.10;;;15.90;99.90;;;;;;5072930;28;20040;-69
2021/08/14 04:41:46;;;;;;;24.65;6.72;;;15.90;99.90;;;;;;5072925;28;20032;-69
2021/08/14 04:44:12;;;;;;;24.50;7.90;;;15.90;99.90;;;;;;5073140;28;20103;-68
2021/08/14 04:46:37;;;;;;;18.95;7.85;;;15.90;99.90;;;;;;5076485;28;20037;-69
2021/08/14 04:49:03;;;;;;;17.00;7.88;;;16.00;99.90;;;;;;5077013;28;20049;-68
2021/08/14 04:51:35;;;;;;;24.90;8.20;;;16.00;99.90;;;;;;5077128;28;20125;-69
2021/08/14 04:54:01;;;;;;;21.13;8.02;;;16.00;99.90;;;;;;5077146;28;20128;-69
2021/08/14 04:56:26;;;;;;;22.88;7.00;;;16.00;99.90;;;;;;5076811;28;20373;-69
2021/08/14 04:58:52;;;;;;;20.83;7.15;;;16.10;99.90;;;;;;5076426;28;20396;-68
2021/08/14 05:01:18;;;;;;;21.15;7.57;;;16.10;99.90;;;;;;5076532;28;20036;-68
2021/08/14 05:03:43;;;;;;;27.02;7.82;;;16.10;99.90;;;;;;5076748;28;20052;-68
2021/08/14 05:06:09;;;;;;;25.77;8.00;;;16.20;99.90;;;;;;5076638;28;20043;-68
2021/08/14 05:08:35;;;;;;;19.45;7.82;;;16.10;99.90;;;;;;5076646;28;20033;-68
2021/08/14 05:11:04;;;;;;;21.98;8.02;;;16.20;99.90;;;;;;5076502;28;20430;-68
2021/08/14 05:13:30;;;;;;;25.38;8.65;;;16.20;99.90;;;;;;5076257;28;20097;-68
2021/08/14 05:15:56;;;;;;;21.42;7.85;;;16.20;99.90;;;;;;5076466;28;20480;-68
2021/08/14 05:18:22;;;;;;;23.83;8.65;;;16.20;99.90;;;;;;5076105;28;20032;-68
2021/08/14 05:20:48;;;;;;;21.30;8.48;;;16.30;99.90;;;;;;5076024;28;20045;-68
2021/08/14 05:23:14;;;;;;;16.77;7.88;;;16.30;99.90;;;;;;5076352;28;20458;-68
2021/08/14 05:25:40;;;;;;;20.10;7.43;;;16.30;99.90;;;;;;5076183;28;20471;-68
2021/08/14 05:28:06;;;;;;;22.33;7.95;;;16.30;99.90;;;;;;5076202;28;20541;-68
2021/08/14 05:30:32;;;;;;;27.00;8.55;;;16.30;99.90;;;;;;5076177;28;20124;-68
2021/08/14 05:32:58;;;;;;;20.45;8.07;;;16.30;99.90;;;;;;5076572;28;20047;-68
2021/08/14 05:35:23;;;;;;;19.80;7.70;;;16.30;99.90;;;;;;5076366;28;20045;-68
2021/08/14 05:37:49;;;;;;;19.25;8.40;;;16.40;99.90;;;;;;5076594;28;20040;-68
2021/08/14 05:40:18;;;;;;;25.08;9.07;;;16.50;99.90;;;;;;5076101;28;20475;-69
2021/08/14 05:42:43;;;;;;;22.50;7.32;;;16.90;99.90;;;;;;5076144;28;20048;-69
2021/08/14 05:45:10;;;;;;;19.52;6.53;;;17.20;99.90;;;;;;5076318;28;20083;-68
2021/08/14 05:47:35;;;;;;;16.25;7.00;;;17.40;99.90;;;;;;5075946;28;20041;-68
2021/08/14 05:50:04;;;;;;;24.02;8.18;;;17.50;99.90;;;;;;5075645;28;20037;-68
2021/08/14 05:52:30;;;;;;;17.95;8.77;;;17.60;99.90;;;;;;5075732;28;20048;-68
2021/08/14 05:54:58;;;;;;;20.05;6.88;;;17.80;99.90;;;;;;5075858;28;20041;-68
2021/08/14 05:57:24;;;;;;;21.63;8.52;;;17.80;99.90;;;;;;5074832;28;20040;-68
2021/08/14 05:59:50;;;;;;;18.85;7.38;;;17.80;99.90;;;;;;5075488;28;20480;-68
2021/08/14 06:02:15;;;;;;;24.40;8.27;;;17.70;99.90;;;;;;5076127;28;20404;-68
2021/08/14 06:04:41;;;;;;;15.35;8.48;;;17.70;99.90;;;;;;5075792;28;20068;-68
2021/08/14 06:07:09;;;;;;;20.20;8.50;;;17.60;99.90;;;;;;5074630;28;20040;-68
2021/08/14 06:09:35;;;;;;;20.58;7.65;;;17.60;99.90;;;;;;5075314;28;20123;-68
2021/08/14 06:12:01;;;;;;;21.50;8.43;;;17.70;99.90;;;;;;5075525;28;20036;-68
2021/08/14 06:14:27;;;;;;;21.20;8.50;;;17.70;99.90;;;;;;5075565;28;20036;-68
2021/08/14 06:16:53;;;;;;;18.00;7.25;;;17.80;99.90;;;;;;5075505;28;20130;-68
2021/08/14 06:19:18;;;;;;;16.25;7.50;;;17.90;99.90;;;;;;5075610;28;20109;-68
2021/08/14 06:21:44;;;;;;;23.65;10.02;;;18.00;99.90;;;;;;5075137;28;20547;-68
2021/08/14 06:24:10;;;;;;;24.25;8.63;;;18.10;99.90;;;;;;5075518;28;20476;-69
2021/08/14 06:26:35;;;;;;;25.60;8.68;;;18.20;99.90;;;;;;5075400;28;20090;-69
2021/08/14 06:29:01;;;;;;;27.58;9.18;;;18.20;99.90;;;;;;5075016;28;20040;-69
2021/08/14 06:31:27;;;;;;;21.33;8.38;;;18.20;99.90;;;;;;5074907;28;20044;-69
2021/08/14 06:33:55;;;;;;;22.58;9.15;;;18.20;99.90;;;;;;5075313;28;20041;-68
2021/08/14 06:36:22;;;;;;;19.42;8.25;;;18.40;99.90;;;;;;5075238;28;20102;-68
2021/08/14 06:38:48;;;;;;;24.10;8.93;;;18.70;99.90;;;;;;5074800;28;20048;-68
2021/08/14 06:41:14;;;;;;;21.67;8.05;;;19.10;99.90;;;;;;5075018;28;20049;-68
2021/08/14 06:43:39;;;;;;;31.40;10.18;;;19.20;99.90;;;;;;5074839;28;20411;-68
2021/08/14 06:46:05;;;;;;;20.27;7.93;;;19.10;99.90;;;;;;5074760;28;20476;-68
2021/08/14 06:48:35;;;;;;;18.55;8.07;;;19.20;99.90;;;;;;5074470;28;20052;-68
2021/08/14 06:51:01;;;;;;;21.17;8.68;;;19.40;99.90;;;;;;5074537;28;20393;-68
2021/08/14 06:53:27;;;;;;;25.70;7.32;;;19.80;99.90;;;;;;5074486;28;20041;-68
2021/08/14 06:55:55;;;;;;;22.67;8.50;;;19.90;99.90;;;;;;5074696;28;20082;-68
2021/08/14 06:58:20;;;;;;;22.40;8.40;;;19.90;99.90;;;;;;5074486;28;20040;-67
2021/08/14 07:00:47;;;;;;;19.30;8.48;;;19.80;99.90;;;;;;5074734;28;20042;-67
2021/08/14 07:03:13;;;;;;;16.88;8.07;;;19.70;99.90;;;;;;5074717;28;20259;-66
2021/08/14 07:05:40;;;;;;;23.30;8.77;;;19.70;99.90;;;;;;5074687;28;20053;-67
2021/08/14 07:08:06;;;;;;;17.77;7.80;;;19.70;99.90;;;;;;5073558;28;20033;-68
2021/08/14 07:10:32;;;;;;;21.30;8.95;;;19.70;99.90;;;;;;5073654;28;20040;-68
2021/08/14 07:12:58;;;;;;;24.45;8.57;;;19.70;99.90;;;;;;5074203;28;20041;-68
2021/08/14 07:15:23;;;;;;;23.60;8.77;;;19.70;99.90;;;;;;5074276;28;20067;-68
2021/08/14 07:17:50;;;;;;;26.40;9.00;;;19.60;99.90;;;;;;5074079;28;20040;-69
2021/08/14 07:20:16;;;;;;;20.23;8.20;;;19.60;99.90;;;;;;5073945;28;20111;-68
2021/08/14 07:22:41;;;;;;;26.90;8.88;;;19.60;99.90;;;;;;5073917;28;20602;-68
2021/08/14 07:25:07;;;;;;;25.70;8.90;;;19.70;99.90;;;;;;5074171;28;20048;-68
2021/08/14 07:27:33;;;;;;;18.58;7.78;;;19.80;99.90;;;;;;5074129;28;20067;-68
2021/08/14 07:29:59;;;;;;;27.95;8.27;;;19.90;99.90;;;;;;5072463;28;20075;-68
2021/08/14 07:32:24;;;;;;;25.17;8.07;;;19.90;99.90;;;;;;5074041;28;20075;-68
2021/08/14 07:34:51;;;;;;;27.42;8.35;;;19.80;99.90;;;;;;5074014;28;20040;-68
2021/08/14 07:37:17;;;;;;;21.13;7.55;;;19.80;99.90;;;;;;5074039;28;20036;-68
2021/08/14 07:39:43;;;;;;;19.27;7.43;;;19.80;99.90;;;;;;5073811;28;20115;-68
2021/08/14 07:42:09;;;;;;;20.90;7.53;;;19.90;99.90;;;;;;5074243;28;20064;-68
2021/08/14 07:44:34;;;;;;;30.15;8.60;;;19.90;99.90;;;;;;5072818;28;20137;-68
2021/08/14 07:47:00;;;;;;;28.00;8.18;;;19.90;99.90;;;;;;5073789;28;20540;-68
2021/08/14 07:49:25;;;;;;;20.65;7.40;;;19.90;99.90;;;;;;5073444;28;20055;-68
2021/08/14 07:51:51;;;;;;;18.98;6.63;;;20.00;99.90;;;;;;5073611;28;20115;-68
2021/08/14 07:54:17;;;;;;;18.55;7.47;;;20.00;99.90;;;;;;5073415;28;20040;-68
2021/08/14 07:56:43;;;;;;;21.17;7.00;;;19.90;99.90;;;;;;5073459;28;20060;-68
2021/08/14 07:59:08;;;;;;;22.67;7.55;;;19.80;99.90;;;;;;5073224;28;20037;-68
2021/08/14 08:01:34;;;;;;;26.55;7.13;;;19.80;99.90;;;;;;5073332;28;20480;-68
2021/08/14 08:04:00;;;;;;;18.17;7.72;;;19.80;99.90;;;;;;5073365;28;20041;-68
2021/08/14 08:06:26;;;;;;;24.23;6.35;;;19.80;99.90;;;;;;5073393;28;20040;-68
2021/08/14 08:08:51;;;;;;;23.83;7.32;;;19.70;99.90;;;;;;5072990;28;20037;-68
2021/08/14 08:11:17;;;;;;;18.58;6.72;;;19.70;99.90;;;;;;5073290;28;20047;-68
2021/08/14 08:13:43;;;;;;;18.08;6.93;;;19.80;99.90;;;;;;5073407;28;20047;-68
2021/08/14 08:16:08;;;;;;;18.23;6.70;;;19.80;99.90;;;;;;5073346;28;20157;-68
2021/08/14 08:18:34;;;;;;;19.05;7.18;;;19.80;99.90;;;;;;5073295;28;20040;-68
2021/08/14 08:21:01;;;;;;;17.92;6.43;;;19.80;99.90;;;;;;5072800;28;20078;-68
2021/08/14 08:23:26;;;;;;;24.38;7.43;;;19.80;99.90;;;;;;5073607;28;20118;-68
2021/08/14 08:25:52;;;;;;;19.65;6.70;;;19.90;99.90;;;;;;5073250;28;20547;-68
2021/08/14 08:28:22;;;;;;;17.00;6.20;;;19.90;99.90;;;;;;5073257;28;20040;-68
2021/08/14 08:30:48;;;;;;;25.20;7.65;;;20.00;99.90;;;;;;5073104;28;20047;-68
2021/08/14 08:33:14;;;;;;;14.50;6.78;;;20.10;99.90;;;;;;5073128;28;20105;-68
2021/08/14 08:35:39;;;;;;;17.42;6.97;;;20.20;99.90;;;;;;5073507;28;20115;-68
2021/08/14 08:38:05;;;;;;;20.30;6.32;;;20.30;99.90;;;;;;5073293;28;20040;-68
2021/08/14 08:40:36;;;;;;;20.90;7.07;;;20.50;99.90;;;;;;5071794;28;20043;-68
2021/08/14 08:43:01;;;;;;;17.48;6.38;;;20.50;99.90;;;;;;5073018;28;20096;-68
2021/08/14 08:45:27;;;;;;;18.38;7.15;;;20.70;99.90;;;;;;5072907;28;20040;-68
2021/08/14 08:47:56;;;;;;;20.33;7.32;;;21.00;99.90;;;;;;5072930;28;20037;-68
2021/08/14 08:50:22;;;;;;;23.23;7.45;;;21.20;99.90;;;;;;5072775;28;20044;-68
2021/08/14 08:52:47;;;;;;;19.38;6.43;;;21.30;99.90;;;;;;5073301;28;20044;-71
2021/08/14 08:55:14;;;;;;;18.20;6.57;;;21.60;99.90;;;;;;5073095;28;20053;-72
2021/08/14 08:57:40;;;;;;;15.55;5.78;;;21.80;99.90;;;;;;5072836;28;20032;-72
2021/08/14 09:00:07;;;;;;;16.88;5.53;;;22.00;99.90;;;;;;5072493;28;20043;-72
2021/08/14 09:02:35;;;;;;;16.83;5.93;;;22.00;99.90;;;;;;5073022;28;20461;-72
2021/08/14 09:05:07;;;;;;;16.33;5.40;;;21.90;99.90;;;;;;5072822;28;20090;-72
2021/08/14 09:07:33;;;;;;;13.15;5.15;;;21.70;99.90;;;;;;5072926;28;20036;-72
2021/08/14 09:10:00;;;;;;;18.80;5.25;;;21.50;99.90;;;;;;5072405;28;20429;-72
2021/08/14 09:12:38;;;;;;;15.75;4.97;;;21.50;99.90;;;;;;5072731;28;20037;-72
2021/08/14 09:15:05;;;;;;;11.00;4.93;;;21.40;99.90;;;;;;5072641;28;20083;-72
2021/08/14 09:17:31;;;;;;;15.43;5.35;;;21.40;99.90;;;;;;5072746;28;20033;-71
2021/08/14 09:20:11;;;;;;;16.20;5.53;;;21.30;99.90;;;;;;5072299;28;20089;-71
2021/08/14 09:22:38;;;;;;;14.52;5.47;;;21.30;99.90;;;;;;5071393;28;20040;-71
2021/08/14 09:25:18;;;;;;;14.15;5.35;;;21.20;99.90;;;;;;5072986;28;20063;-71
2021/08/14 09:27:57;;;;;;;13.80;5.47;;;21.20;99.90;;;;;;5071668;28;20044;-71
2021/08/14 09:30:43;;;;;;;13.40;5.07;;;21.10;99.90;;;;;;5072085;28;20040;-71
2021/08/14 09:33:10;;;;;;;15.68;5.28;;;21.20;99.90;;;;;;5095162;28;20438;-72
2021/08/14 09:35:35;;;;;;;14.43;5.40;;;21.10;99.90;;;;;;5095094;28;20403;-72
2021/08/14 09:38:06;;;;;;;12.43;4.20;;;21.10;99.90;;;;;;5096290;28;20070;-71
2021/08/14 09:40:35;;;;;;;12.18;4.30;;;21.00;99.90;;;;;;5095063;28;20039;-72
2021/08/14 09:43:00;;;;;;;14.27;4.88;;;21.00;99.90;;;;;;5096282;28;20040;-71
2021/08/14 09:45:26;;;;;;;11.57;3.90;;;21.00;99.90;;;;;;5096184;28;20445;-71
2021/08/14 09:47:53;;;;;;;14.15;5.38;;;21.00;99.90;;;;;;5096378;28;20118;-71
2021/08/14 09:50:19;;;;;;;13.23;4.90;;;20.90;99.90;;;;;;5095755;28;20109;-71
2021/08/14 09:52:51;;;;;;;20.05;5.40;;;20.90;99.90;;;;;;5095831;28;20049;-68
2021/08/14 09:55:23;;;;;;;;;;;20.80;99.90;;;;;;5096416;28;20529;-68
2021/08/14 09:58:02;;;;;;;14.18;4.40;;;21.00;99.90;;;;;;5096045;28;19916;-69
2021/08/14 10:00:30;;;;;;;15.82;5.72;;;21.00;99.90;;;;;;5095557;28;20078;-68
2021/08/14 10:03:00;;;;;;;14.20;4.93;;;20.90;99.90;;;;;;5096149;28;20039;-68
2021/08/14 10:05:27;;;;;;;19.80;6.13;;;21.10;99.90;;;;;;5095885;28;20032;-68
2021/08/14 10:07:53;;;;;;;16.48;4.65;;;21.30;99.90;;;;;;5095916;28;20119;-68
2021/08/14 10:10:19;;;;;;;15.05;5.43;;;21.40;99.90;;;;;;5095619;28;20123;-68
2021/08/14 10:12:45;;;;;;;15.68;5.25;;;21.50;99.90;;;;;;5095932;28;20043;-69
2021/08/14 10:15:11;;;;;;;13.70;5.28;;;21.70;99.90;;;;;;5095702;28;20040;-69
2021/08/14 10:17:39;;;;;;;15.85;5.95;;;21.70;99.90;;;;;;5095538;28;20043;-69
2021/08/14 10:20:08;;;;;;;10.10;4.53;;;21.90;99.90;;;;;;5095249;28;20039;-68
2021/08/14 10:22:33;;;;;;;15.82;5.10;;;22.10;99.90;;;;;;5095798;28;20032;-69
2021/08/14 10:24:59;;;;;;;18.48;6.05;;;22.20;99.90;;;;;;5095565;28;20042;-68
2021/08/14 10:27:25;;;;;;;14.18;4.78;;;22.20;99.90;;;;;;5095307;28;20115;-68
2021/08/14 10:29:53;;;;;;;14.13;5.20;;;22.20;99.90;;;;;;5095325;28;20064;-68
2021/08/14 10:32:34;;;;;;;13.50;5.43;;;22.30;99.90;;;;;;5095264;28;20051;-69
2021/08/14 10:35:15;;;;;;;15.25;5.18;;;22.40;99.90;;;;;;5095149;28;20086;-69
2021/08/14 10:37:41;;;;;;;15.15;5.25;;;22.20;99.90;;;;;;5094695;28;20036;-68
2021/08/14 10:40:08;;;;;;;14.13;5.25;;;22.30;99.90;;;;;;5094867;28;20416;-69
2021/08/14 10:42:57;;;;;;;17.98;5.45;;;22.20;99.90;;;;;;5094944;28;20100;-68
2021/08/14 10:45:35;;;;;;;16.33;4.85;;;22.30;99.90;;;;;;5091518;28;20093;-68
2021/08/14 10:48:05;;;;;;;12.52;5.05;;;22.40;99.90;;;;;;5095439;28;20070;-68
2021/08/14 10:50:31;;;;;;;12.55;5.45;;;22.20;99.90;;;;;;5094708;28;20036;-69
2021/08/14 10:53:18;;;;;;;15.80;5.38;;;22.10;99.90;;;;;;5094944;28;20128;-68
2021/08/14 10:55:53;;;;;;;13.15;5.63;;;22.00;99.90;;;;;;5095233;28;20040;-68
2021/08/14 10:58:30;;;;;;;14.45;5.20;;;22.00;99.90;;;;;;5095026;28;20115;-69
2021/08/14 11:01:02;;;;;;;16.45;5.38;;;22.00;99.90;;;;;;5094751;28;20044;-69
2021/08/14 11:03:32;;;;;;;14.45;6.03;;;21.80;99.90;;;;;;5094898;28;20074;-69
2021/08/14 11:06:28;;;;;;;16.35;5.65;;;21.60;99.90;;;;;;5094769;28;20050;-69
2021/08/14 11:09:15;;;;;;;14.45;6.43;;;21.60;99.90;;;;;;5094418;28;20047;-69
2021/08/14 11:11:42;;;;;;;15.50;5.78;;;21.90;99.90;;;;;;5094666;28;20043;-69
2021/08/14 11:14:10;;;;;;;16.67;6.53;;;22.20;99.90;;;;;;5093053;28;20036;-69
2021/08/14 11:16:58;;;;;;;16.40;6.25;;;22.40;99.90;;;;;;5094383;28;20145;-69
2021/08/14 11:19:43;;;;;;;17.25;5.93;;;22.50;99.90;;;;;;5093916;28;20036;-69
2021/08/14 11:22:23;;;;;;;19.05;5.82;;;22.50;99.90;;;;;;5094171;28;20040;-68
2021/08/14 11:24:50;;;;;;;18.65;5.82;;;22.30;99.90;;;;;;5094296;28;20046;-68
2021/08/14 11:27:21;;;;;;;12.98;5.20;;;22.00;99.90;;;;;;5094279;28;20400;-68
2021/08/14 11:29:51;;;;;;;19.65;6.80;;;21.70;99.90;;;;;;5093788;28;20484;-69
2021/08/14 11:32:17;;;;;;;15.50;5.53;;;21.60;99.90;;;;;;5094054;28;20123;-72
2021/08/14 11:34:44;;;;;;;16.50;5.53;;;21.60;99.90;;;;;;5094197;28;20120;-72
2021/08/14 11:37:11;;;;;;;13.27;4.88;;;21.60;99.90;;;;;;5094108;28;20396;-71
2021/08/14 11:39:36;;;;;;;20.65;5.68;;;21.70;99.90;;;;;;5093660;28;20048;-71
2021/08/14 11:42:02;;;;;;;15.95;5.15;;;21.80;99.90;;;;;;5093860;28;20381;-72
2021/08/14 11:44:31;;;;;;;13.90;4.97;;;21.90;99.90;;;;;;5094239;28;20036;-72
2021/08/14 11:47:05;;;;;;;13.75;4.90;;;22.00;99.90;;;;;;5093814;28;20036;-72
2021/08/14 11:49:54;;;;;;;17.58;4.90;;;22.00;99.90;;;;;;5093495;28;20048;-72
2021/08/14 11:52:22;;;;;;;15.52;5.53;;;22.00;99.90;;;;;;5093812;28;20036;-72
2021/08/14 11:54:58;;;;;;;16.85;5.55;;;21.80;99.90;;;;;;5093361;28;20121;-72
2021/08/14 11:57:29;;;;;;;10.77;4.65;;;21.80;99.90;;;;;;5093838;28;20040;-71
2021/08/14 11:59:55;;;;;;;15.27;5.03;;;22.00;99.90;;;;;;5093422;28;20028;-71
2021/08/14 12:02:24;;;;;;;14.85;5.43;;;22.00;99.90;;;;;;5093968;28;20038;-72
2021/08/14 12:04:51;;;;;;;12.15;4.28;;;21.90;99.90;;;;;;5093913;28;20047;-72
2021/08/14 12:07:17;;;;;;;10.02;3.58;;;21.80;99.90;;;;;;5092501;28;20086;-71
2021/08/14 12:09:43;;;;;;;9.00;3.97;;;21.70;99.90;;;;;;5093365;28;20043;-72
2021/08/14 12:12:17;;;;;;;16.08;4.88;;;21.60;99.90;;;;;;5093434;28;20119;-72
2021/08/14 12:14:43;;;;;;;9.25;4.25;;;21.60;99.90;;;;;;5093341;28;20067;-71
2021/08/14 12:17:09;;;;;;;13.18;3.92;;;21.60;99.90;;;;;;5093599;28;20067;-72
2021/08/14 12:19:45;;;;;;;14.38;4.45;;;21.50;99.90;;;;;;5091879;28;20043;-71
2021/08/14 12:22:13;;;;;;;9.70;3.78;;;21.40;99.90;;;;;;5092394;28;20035;-71
2021/08/14 12:24:40;;;;;;;7.63;3.50;;;21.30;99.90;;;;;;5092170;28;20094;-72
2021/08/14 12:27:41;;;;;;;8.52;3.42;;;21.20;99.90;;;;;;5093321;28;20036;-72
2021/08/14 12:30:19;;;;;;;10.13;3.15;;;21.10;99.90;;;;;;5090914;28;20089;-71
2021/08/14 12:32:46;;;;;;;9.73;3.40;;;21.10;99.90;;;;;;5093263;28;20044;-72
2021/08/14 12:35:21;;;;;;;13.48;3.65;;;21.20;99.90;;;;;;5093561;28;20365;-71
2021/08/14 12:37:47;;;;;;;9.48;3.50;;;21.20;99.90;;;;;;5093358;28;20065;-71
2021/08/14 12:40:16;;;;;;;7.40;3.13;;;21.40;99.90;;;;;;5093377;28;20040;-71